Time;durP1;ratioP1;P1;durP2;ratioP2;P2;SDS_P1;SDS_P2;PMS_P1;PMS_P2;Temp;Humidity;BMP_temperature;BMP_pressure;BME280_temperature;BME280_humidity;BME280_pressure;Samples;Min_cycle;Max_cycle;Signal;HPM_P1;HPM_P2
2023/01/02 09:01:10;;;;;;;7.85;2.50;;;;;;;10.84;63.14;96822.34;2093148;27;20658;-57
2023/01/02 09:02:13;;;;;;;4.38;1.90;;;;;;;11.47;61.63;96824.78;2091235;28;20521;-58
2023/01/02 09:03:15;;;;;;;3.80;1.65;;;;;;;12.86;58.04;96828.66;2089636;28;20662;-59
2023/01/02 09:04:17;;;;;;;6.65;1.45;;;;;;;14.10;54.88;96829.97;2090023;28;20196;-59
2023/01/02 09:05:19;;;;;;;5.60;1.95;;;;;;;14.71;53.18;96823.97;2089090;28;20192;-59
2023/01/02 09:06:22;;;;;;;5.13;1.67;;;;;;;14.68;52.54;96830.25;2089208;28;20212;-59
2023/01/02 09:07:24;;;;;;;5.97;2.20;;;;;;;14.31;53.80;96835.81;2091170;28;20267;-59
2023/01/02 09:08:26;;;;;;;15.43;2.25;;;;;;;15.30;52.10;96835.34;2087088;28;20207;-59
2023/01/02 09:09:27;;;;;;;11.30;2.17;;;;;;;15.00;51.90;96833.59;2088007;28;20680;-59
2023/01/02 09:10:29;;;;;;;4.93;1.80;;;;;;;14.93;52.08;96829.66;2094817;28;20196;-59
2023/01/02 09:11:34;;;;;;;28.10;2.45;;;;;;;14.41;53.13;96830.91;2093780;28;20234;-59
2023/01/02 09:12:35;;;;;;;6.10;1.80;;;;;;;14.32;53.26;96827.00;2089339;28;20207;-59
2023/01/02 09:13:37;;;;;;;6.50;2.20;;;;;;;13.78;54.24;96827.38;2089381;28;21112;-59
2023/01/02 09:14:38;;;;;;;7.07;1.80;;;;;;;14.69;52.08;96838.06;2092684;28;20532;-59
2023/01/02 09:15:43;;;;;;;4.03;1.70;;;;;;;14.48;52.65;96829.59;2087450;28;20258;-59
2023/01/02 09:16:45;;;;;;;8.43;2.40;;;;;;;14.28;52.54;96830.72;2097382;28;20541;-59
2023/01/02 09:17:46;;;;;;;9.48;1.92;;;;;;;13.77;53.93;96825.66;2099431;28;20653;-59
2023/01/02 09:18:49;;;;;;;8.32;2.03;;;;;;;13.74;54.33;96833.72;2099494;28;20203;-59
2023/01/02 09:19:50;;;;;;;9.45;1.60;;;;;;;13.89;54.66;96824.16;2099287;28;20285;-59
2023/01/02 09:20:51;;;;;;;5.32;1.60;;;;;;;15.55;51.08;96838.25;2098251;28;20257;-59
2023/01/02 09:21:53;;;;;;;7.47;2.08;;;;;;;15.03;51.54;96835.22;2099392;28;20223;-59
2023/01/02 09:22:54;;;;;;;7.10;1.95;;;;;;;14.45;53.12;96839.41;2100441;28;20667;-59
2023/01/02 09:23:56;;;;;;;5.40;2.25;;;;;;;15.49;51.58;96844.72;2098919;28;20291;-59
2023/01/02 09:24:57;;;;;;;7.18;2.10;;;;;;;15.85;50.95;96850.50;2098864;28;20203;-59
2023/01/02 09:26:00;;;;;;;17.63;3.75;;;;;;;15.77;49.88;96843.88;2097053;28;20223;-59
2023/01/02 09:27:01;;;;;;;4.35;1.50;;;;;;;15.96;48.83;96842.75;2098941;28;20199;-59
2023/01/02 09:28:03;;;;;;;5.43;2.47;;;;;;;15.97;49.33;96849.69;2097865;28;20219;-59
2023/01/02 09:29:05;;;;;;;3.70;1.80;;;;;;;16.09;49.48;96853.38;2098035;28;20296;-59
2023/01/02 09:30:06;;;;;;;5.30;2.03;;;;;;;16.48;48.59;96851.72;2098517;28;20205;-60
2023/01/02 09:31:13;;;;;;;4.93;1.60;;;;;;;15.47;50.66;96855.34;2097507;28;20302;-59
2023/01/02 09:32:15;;;;;;;6.45;1.90;;;;;;;15.26;51.69;96851.41;2099295;28;20234;-60
2023/01/02 09:33:16;;;;;;;10.63;2.67;;;;;;;15.01;52.10;96856.34;2099932;28;20203;-59
2023/01/02 09:34:18;;;;;;;6.05;2.60;;;;;;;14.78;52.99;96862.97;2094980;28;20203;-59
2023/01/02 09:35:19;;;;;;;7.07;2.30;;;;;;;14.11;54.37;96859.72;2097590;28;20234;-59
2023/01/02 09:36:21;;;;;;;5.00;1.73;;;;;;;13.84;54.93;96868.16;2097419;28;20222;-59
2023/01/02 09:37:22;;;;;;;4.88;1.70;;;;;;;13.44;55.66;96865.91;2096072;28;20208;-59
2023/01/02 09:38:24;;;;;;;9.30;3.15;;;;;;;12.88;57.35;96873.97;2098905;28;20644;-59
2023/01/02 09:39:25;;;;;;;7.28;2.25;;;;;;;12.97;57.43;96869.19;2099255;28;20227;-59
2023/01/02 09:40:35;;;;;;;6.07;2.10;;;;;;;13.23;56.52;96876.56;2098638;28;20206;-59
2023/01/02 09:41:41;;;;;;;9.60;2.03;;;;;;;13.22;56.69;96880.09;2099748;28;20206;-59
2023/01/02 09:42:43;;;;;;;11.50;2.20;;;;;;;13.10;57.22;96879.91;2099225;28;20202;-59
2023/01/02 09:43:51;;;;;;;5.53;2.20;;;;;;;12.99;57.65;96877.81;2098754;28;20207;-59
2023/01/02 09:44:56;;;;;;;8.75;2.47;;;;;;;12.89;57.89;96880.06;2099194;28;20200;-59
2023/01/02 09:46:04;;;;;;;4.90;1.95;;;;;;;12.83;58.77;96873.34;2098167;28;20569;-59
2023/01/02 09:47:18;;;;;;;7.50;2.00;;;;;;;13.05;58.09;96880.13;2096999;28;20292;-59
2023/01/02 09:48:21;;;;;;;6.68;2.08;;;;;;;13.14;56.51;96877.03;2098610;28;20202;-59
2023/01/02 09:49:27;;;;;;;8.45;1.90;;;;;;;13.16;56.51;96876.97;2097647;28;20199;-59
2023/01/02 09:50:30;;;;;;;4.53;1.95;;;;;;;13.00;56.89;96880.38;2098904;28;20203;-59
2023/01/02 09:51:33;;;;;;;9.18;2.75;;;;;;;13.04;56.59;96879.28;2099108;28;20251;-59
2023/01/02 09:52:45;;;;;;;8.20;2.47;;;;;;;12.96;56.82;96883.22;2093439;28;20560;-59
2023/01/02 09:53:47;;;;;;;6.88;1.95;;;;;;;13.09;57.19;96888.69;2100632;28;20724;-59
2023/01/02 09:54:48;;;;;;;7.68;1.60;;;;;;;13.15;57.48;96886.59;2099196;28;20456;-59
2023/01/02 09:56:00;;;;;;;6.70;2.08;;;;;;;13.24;57.60;96890.50;2094283;28;20207;-59
2023/01/02 09:57:25;;;;;;;6.18;2.05;;;;;;;13.39;57.11;96889.78;2095367;28;20196;-59
2023/01/02 09:58:42;;;;;;;5.00;1.98;;;;;;;13.55;56.87;96881.09;2096301;28;20207;-59
2023/01/02 10:00:05;;;;;;;4.93;2.20;;;;;;;13.92;55.65;96894.03;2098756;28;20655;-59
2023/01/02 10:01:20;;;;;;;8.23;2.13;;;;;;;13.88;55.07;96882.84;2097458;28;20310;-59
2023/01/02 10:02:50;;;;;;;11.27;2.58;;;;;;;13.59;56.48;96893.13;2097852;28;20211;-60
2023/01/02 10:04:15;;;;;;;10.68;2.05;;;;;;;13.74;55.77;96893.22;2097564;28;20318;-59
2023/01/02 10:05:36;;;;;;;7.45;2.15;;;;;;;14.44;54.93;96896.38;2097738;28;20203;-59
2023/01/02 10:06:47;;;;;;;6.07;2.03;;;;;;;14.73;54.34;96898.31;2096376;28;20277;-59
2023/01/02 10:08:14;;;;;;;3.40;1.45;;;;;;;14.22;55.33;96886.25;2095638;28;20215;-59
2023/01/02 10:09:34;;;;;;;11.40;2.15;;;;;;;14.80;53.72;96894.41;2098642;28;20385;-59
2023/01/02 10:10:45;;;;;;;8.07;1.88;;;;;;;14.81;53.08;96902.19;2097083;28;20198;-60
2023/01/02 10:11:52;;;;;;;7.90;2.58;;;;;;;15.17;53.17;96905.41;2096636;28;20202;-59
2023/01/02 10:13:06;;;;;;;13.13;2.15;;;;;;;15.29;52.74;96912.56;2091418;28;20204;-59
2023/01/02 10:14:16;;;;;;;4.88;1.70;;;;;;;15.34;52.31;96910.50;2094946;28;20814;-60
2023/01/02 10:15:25;;;;;;;10.73;1.75;;;;;;;15.51;50.92;96909.50;2092849;28;20195;-59
2023/01/02 10:16:32;;;;;;;6.97;2.20;;;;;;;15.51;50.04;96906.03;2092126;28;20252;-59
2023/01/02 10:17:38;;;;;;;9.02;2.58;;;;;;;15.57;49.49;96910.09;2092168;28;20203;-59
2023/01/02 10:18:46;;;;;;;5.18;1.80;;;;;;;15.41;50.55;96892.56;2093634;28;20192;-59
2023/01/02 10:20:03;;;;;;;7.43;1.70;;;;;;;15.54;50.02;96882.16;2093234;28;20200;-60
2023/01/02 10:21:15;;;;;;;8.52;2.00;;;;;;;15.50;49.98;96904.31;2092241;28;20227;-59
2023/01/02 10:22:21;;;;;;;7.20;2.33;;;;;;;15.31;50.39;96910.72;2093768;28;20215;-60
2023/01/02 10:23:36;;;;;;;10.07;2.78;;;;;;;15.26;51.04;96909.28;2091746;28;20199;-59
2023/01/02 10:24:46;;;;;;;10.52;2.17;;;;;;;16.04;49.73;96916.84;2093541;28;20534;-60
2023/01/02 10:25:54;;;;;;;9.50;2.05;;;;;;;16.73;47.72;96905.50;2093811;28;20196;-60
2023/01/02 10:26:56;;;;;;;5.55;2.50;;;;;;;16.36;48.30;96902.59;2094500;28;20193;-59
2023/01/02 10:28:20;;;;;;;11.80;1.95;;;;;;;16.01;48.77;96874.94;2093222;28;20230;-60
2023/01/02 10:29:30;;;;;;;8.07;2.35;;;;;;;16.76;48.44;96905.28;2092707;28;20682;-60
2023/01/02 10:30:39;;;;;;;5.22;2.45;;;;;;;17.37;47.65;96896.88;2092088;28;20203;-59
2023/01/02 10:31:52;;;;;;;14.50;2.58;;;;;;;17.88;45.60;96903.97;2092162;28;20755;-60
2023/01/02 10:33:19;;;;;;;9.40;2.10;;;;;;;18.56;43.95;96907.06;2093341;28;20195;-60
2023/01/02 10:34:22;;;;;;;4.75;2.00;;;;;;;19.26;42.92;96892.22;2094263;28;20235;-60
2023/01/02 10:35:36;;;;;;;7.57;2.45;;;;;;;19.11;43.26;96893.38;2092308;28;20215;-60
2023/01/02 10:36:40;;;;;;;7.18;2.30;;;;;;;18.64;44.53;96893.28;2093056;28;20203;-60
2023/01/02 10:37:41;;;;;;;6.22;2.78;;;;;;;17.85;44.73;96885.66;2093895;28;20201;-60
2023/01/02 10:38:43;;;;;;;13.40;3.97;;;;;;;17.42;45.84;96892.13;2092619;28;20204;-60
2023/01/02 10:39:48;;;;;;;7.03;3.60;;;;;;;17.47;46.58;96882.09;2092254;28;20200;-60
2023/01/02 10:40:50;;;;;;;6.80;3.05;;;;;;;17.76;45.20;96889.78;2087920;28;20759;-60
2023/01/02 10:41:56;;;;;;;10.70;2.92;;;;;;;17.86;44.03;96885.56;2089972;28;20209;-60
2023/01/02 10:42:59;;;;;;;9.82;2.35;;;;;;;17.97;43.95;96891.91;2091551;28;20200;-60
2023/01/02 10:44:15;;;;;;;10.25;2.53;;;;;;;17.37;44.59;96886.31;2092036;28;20206;-59
2023/01/02 10:45:17;;;;;;;8.45;2.30;;;;;;;17.81;44.26;96894.75;2092899;28;20536;-60
2023/01/02 10:46:19;;;;;;;11.98;3.00;;;;;;;17.76;44.29;96890.66;2092165;28;20219;-59
2023/01/02 10:47:40;;;;;;;9.15;2.70;;;;;;;17.74;43.97;96863.50;2093488;28;20279;-60
2023/01/02 10:48:42;;;;;;;24.85;3.05;;;;;;;18.27;43.51;96887.09;2092714;28;20227;-59
2023/01/02 10:49:53;;;;;;;7.57;3.20;;;;;;;18.39;43.48;96895.91;2092360;28;20195;-57
2023/01/02 10:50:59;;;;;;;8.43;2.45;;;;;;;18.52;43.82;96895.03;2091155;28;20265;-57
2023/01/02 10:52:11;;;;;;;8.88;3.20;;;;;;;18.67;43.54;96890.44;2092656;28;20283;-57
2023/01/02 10:53:27;;;;;;;7.72;3.20;;;;;;;18.60;43.82;96888.25;2091461;28;20218;-57
2023/01/02 10:54:28;;;;;;;8.43;2.50;;;;;;;18.86;42.30;96876.69;2093019;28;20199;-57
2023/01/02 10:55:35;;;;;;;14.30;3.20;;;;;;;18.43;43.60;96888.63;2092655;28;20205;-57
2023/01/02 10:56:39;;;;;;;11.93;2.60;;;;;;;18.57;43.06;96883.16;2092360;28;20682;-58
2023/01/02 10:57:49;;;;;;;9.60;2.60;;;;;;;18.53;43.00;96888.81;2093179;28;20234;-58
2023/01/02 10:58:52;;;;;;;9.85;2.45;;;;;;;18.15;43.54;96889.78;2093104;28;20192;-58
2023/01/02 10:59:56;;;;;;;10.40;2.63;;;;;;;18.06;44.06;96889.47;2092410;28;20193;-58
2023/01/02 11:01:12;;;;;;;7.28;1.90;;;;;;;18.00;43.95;96878.50;2089565;28;20224;-58
2023/01/02 11:02:36;;;;;;;5.78;1.80;;;;;;;17.93;44.29;96893.91;2091076;28;20532;-59
2023/01/02 11:03:38;;;;;;;6.38;1.95;;;;;;;18.24;43.95;96868.78;2091820;28;20663;-59
2023/01/02 11:04:41;;;;;;;6.55;2.28;;;;;;;18.92;42.96;96884.19;2092561;28;20212;-59
2023/01/02 11:05:48;;;;;;;10.45;2.15;;;;;;;19.54;41.71;96892.75;2092622;28;20245;-59
2023/01/02 11:06:59;;;;;;;12.63;2.70;;;;;;;19.47;41.65;96891.56;2092476;28;20193;-59
2023/01/02 11:08:11;;;;;;;11.75;2.38;;;;;;;18.98;42.82;96890.81;2092640;28;20825;-59
2023/01/02 11:09:22;;;;;;;8.32;2.22;;;;;;;18.91;43.33;96899.22;2091607;28;20714;-59
2023/01/02 11:10:30;;;;;;;9.13;2.50;;;;;;;18.16;44.48;96899.41;2092437;28;20554;-58
2023/01/02 11:11:32;;;;;;;9.18;2.40;;;;;;;17.73;45.50;96890.84;2092616;28;20717;-58
2023/01/02 11:12:46;;;;;;;9.30;3.05;;;;;;;17.66;46.34;96896.66;2092345;28;20223;-59
2023/01/02 11:13:50;;;;;;;7.65;2.35;;;;;;;17.44;46.65;96890.25;2092731;28;20198;-59
2023/01/02 11:15:10;;;;;;;6.30;2.20;;;;;;;17.44;47.01;96892.88;2090494;28;20196;-58
2023/01/02 11:16:15;;;;;;;3.28;1.30;;;;;;;17.95;46.01;96894.66;2092127;28;20220;-59
2023/01/02 11:17:19;;;;;;;8.20;2.20;;;;;;;19.04;43.82;96883.25;2091652;28;20203;-58
2023/01/02 11:18:28;;;;;;;11.30;2.72;;;;;;;19.92;41.89;96896.91;2088801;28;20601;-58
2023/01/02 11:19:37;;;;;;;7.10;2.08;;;;;;;20.71;41.01;96894.16;2089747;28;20197;-59
2023/01/02 11:20:39;;;;;;;8.32;1.92;;;;;;;20.74;40.96;96892.22;2089813;28;20547;-59
2023/01/02 11:21:42;;;;;;;6.97;2.22;;;;;;;20.02;41.30;96889.94;2088832;28;20230;-58
2023/01/02 11:22:44;;;;;;;14.63;2.60;;;;;;;19.94;41.47;96887.03;2090630;28;20203;-58
2023/01/02 11:23:46;;;;;;;3.83;1.60;;;;;;;20.02;41.12;96889.06;2091792;28;20204;-57
2023/01/02 11:25:00;;;;;;;10.02;3.10;;;;;;;18.79;42.71;96891.31;2088468;28;20192;-58
2023/01/02 11:26:03;;;;;;;13.35;2.53;;;;;;;18.63;43.79;96889.81;2089228;28;20574;-57
2023/01/02 11:27:08;;;;;;;8.40;2.40;;;;;;;18.57;43.50;96884.97;2093354;28;20197;-57
2023/01/02 11:28:27;;;;;;;10.85;2.80;;;;;;;17.62;44.07;96898.69;2093234;28;20222;-57
2023/01/02 11:29:34;;;;;;;9.57;2.20;;;;;;;17.24;45.18;96891.59;2092617;28;20202;-57
2023/01/02 11:30:43;;;;;;;11.63;2.20;;;;;;;16.57;44.82;96885.41;2092154;28;20191;-58
2023/01/02 11:31:50;;;;;;;12.90;2.47;;;;;;;16.41;46.21;96879.44;2088945;28;20200;-58
2023/01/02 11:33:18;;;;;;;11.82;3.13;;;;;;;16.34;47.14;96881.63;2091219;28;20215;-57
2023/01/02 11:34:23;;;;;;;12.60;2.97;;;;;;;16.20;47.46;96879.88;2096374;28;20203;-57
2023/01/02 11:35:44;;;;;;;14.88;2.70;;;;;;;15.86;48.14;96889.03;2095925;28;20287;-57
2023/01/02 11:37:01;;;;;;;8.15;2.10;;;;;;;15.84;48.04;96883.88;2098883;28;20358;-58
2023/01/02 11:38:02;;;;;;;13.60;2.65;;;;;;;15.74;48.87;96894.06;2093681;28;20200;-58
2023/01/02 11:39:22;;;;;;;6.28;2.15;;;;;;;15.60;48.98;96894.09;2090969;28;20199;-57
2023/01/02 11:40:27;;;;;;;15.02;2.58;;;;;;;15.45;49.69;96891.47;2092682;28;20200;-58
2023/01/02 11:44:49;;;;;;;11.70;2.78;;;;;;;15.27;47.71;96896.03;2091327;28;20670;-57
2023/01/02 11:45:51;;;;;;;7.53;2.10;;;;;;;15.21;48.02;96885.03;2085837;28;20205;-58
2023/01/02 11:46:55;;;;;;;11.43;2.42;;;;;;;15.16;48.71;96891.41;2088294;28;20286;-57
2023/01/02 11:48:00;;;;;;;26.13;3.22;;;;;;;15.12;48.79;96889.91;2093135;28;20203;-57
2023/01/02 11:49:24;;;;;;;10.55;2.20;;;;;;;15.23;49.09;96891.06;2091954;28;20196;-58
2023/01/02 11:50:29;;;;;;;7.18;1.90;;;;;;;15.37;49.26;96890.22;2091895;28;20648;-58
2023/01/02 11:51:34;;;;;;;9.25;2.53;;;;;;;15.18;48.80;96878.16;2092110;28;20730;-58
2023/01/02 11:52:49;;;;;;;8.50;1.90;;;;;;;15.25;48.88;96890.03;2093631;28;20201;-58
2023/01/02 11:53:52;;;;;;;17.92;2.53;;;;;;;15.19;49.25;96878.06;2092175;28;20692;-57
2023/01/02 11:55:02;;;;;;;15.70;2.78;;;;;;;15.18;48.48;96879.03;2088396;28;20208;-57
2023/01/02 11:56:12;;;;;;;15.18;2.50;;;;;;;15.14;49.11;96885.38;2091347;28;20625;-57
2023/01/02 11:57:41;;;;;;;13.20;4.63;;;;;;;15.06;48.55;96885.00;2092917;28;20658;-57
2023/01/02 11:59:10;;;;;;;10.07;2.10;;;;;;;15.13;49.08;96888.13;2091694;28;20196;-58
2023/01/02 12:00:15;;;;;;;13.43;2.30;;;;;;;15.04;49.27;96899.19;2090941;28;20699;-58
2023/01/02 12:01:26;;;;;;;14.43;2.72;;;;;;;15.00;49.80;96893.25;2091534;28;20224;-57
2023/01/02 12:02:39;;;;;;;9.32;2.50;;;;;;;14.92;49.71;96884.94;2092214;28;20219;-57
2023/01/02 12:03:41;;;;;;;11.23;2.67;;;;;;;14.92;49.73;96877.94;2091511;28;20249;-58
2023/01/02 12:04:42;;;;;;;7.45;2.42;;;;;;;14.82;49.80;96882.03;2092293;28;20207;-58
2023/01/02 12:06:02;;;;;;;13.05;2.70;;;;;;;14.86;49.98;96881.75;2092388;28;20567;-57
2023/01/02 12:07:29;;;;;;;11.80;2.53;;;;;;;14.82;50.09;96879.41;2091828;28;20192;-57
2023/01/02 12:08:42;;;;;;;9.45;2.58;;;;;;;14.69;49.57;96885.38;2094131;28;20200;-58
2023/01/02 12:10:22;;;;;;;20.27;3.30;;;;;;;14.66;49.74;96882.06;2091481;28;20642;-57
2023/01/02 12:11:40;;;;;;;17.63;3.17;;;;;;;14.66;49.90;96874.19;2087875;28;20234;-57
2023/01/02 12:12:44;;;;;;;9.98;2.20;;;;;;;14.73;49.68;96882.53;2093023;28;20653;-57
2023/01/02 12:14:00;;;;;;;9.48;2.13;;;;;;;14.65;49.69;96885.63;2091463;28;20214;-58
2023/01/02 12:15:29;;;;;;;12.23;2.42;;;;;;;14.59;49.91;96878.03;2091871;28;20821;-58
2023/01/02 12:16:40;;;;;;;6.38;1.73;;;;;;;14.50;50.23;96866.28;2091884;28;20684;-57
2023/01/02 12:17:56;;;;;;;9.73;2.20;;;;;;;14.61;50.31;96881.44;2089420;28;20662;-57
2023/01/02 12:19:18;;;;;;;13.68;3.00;;;;;;;14.58;50.58;96877.22;2090106;28;20196;-57
2023/01/02 12:20:44;;;;;;;8.68;2.25;;;;;;;14.53;50.80;96887.97;2091938;28;20204;-58
2023/01/02 12:22:04;;;;;;;14.48;2.50;;;;;;;14.48;50.76;96890.00;2090743;28;20219;-57
2023/01/02 12:23:14;;;;;;;12.38;2.50;;;;;;;14.56;51.05;96888.75;2093587;28;20195;-58
2023/01/02 12:24:49;;;;;;;17.02;2.28;;;;;;;14.53;50.70;96890.59;2092430;28;20278;-57
2023/01/02 12:25:55;;;;;;;15.27;2.30;;;;;;;14.50;50.40;96884.66;2091457;28;20736;-58
2023/01/02 12:27:36;;;;;;;9.13;2.53;;;;;;;14.51;50.71;96884.59;2092276;28;20191;-58
2023/01/02 12:29:06;;;;;;;9.73;2.28;;;;;;;14.53;51.07;96887.13;2089674;28;20214;-57
2023/01/02 12:30:12;;;;;;;16.45;2.35;;;;;;;14.48;51.02;96886.56;2092642;28;20671;-58
2023/01/02 12:31:39;;;;;;;8.38;2.05;;;;;;;14.45;50.80;96886.72;2090138;28;20220;-57
2023/01/02 12:33:13;;;;;;;13.80;3.50;;;;;;;14.45;50.95;96884.94;2091648;28;20196;-57
2023/01/02 12:34:47;;;;;;;17.02;2.22;;;;;;;14.48;51.24;96890.00;2091705;28;20258;-58
2023/01/02 12:36:23;;;;;;;13.60;1.98;;;;;;;14.44;51.56;96906.91;2091477;28;20204;-57
2023/01/02 12:37:27;;;;;;;11.35;2.15;;;;;;;14.46;51.75;96905.03;2092492;28;20241;-58
2023/01/02 12:38:55;;;;;;;8.52;2.72;;;;;;;14.51;51.54;96904.75;2091802;28;20226;-57
2023/01/02 12:40:03;;;;;;;16.02;2.40;;;;;;;14.56;51.53;96902.72;2092617;28;20200;-58
2023/01/02 12:41:13;;;;;;;13.20;2.25;;;;;;;14.60;51.88;96904.25;2087687;28;20220;-58
2023/01/02 12:42:54;;;;;;;17.45;3.20;;;;;;;14.61;51.38;96900.69;2091146;28;20206;-58
2023/01/02 12:44:37;;;;;;;13.82;2.63;;;;;;;14.65;51.68;96902.25;2092787;28;20234;-57
2023/01/02 12:45:54;;;;;;;14.25;2.90;;;;;;;14.66;51.45;96911.81;2091754;28;20195;-58
2023/01/02 12:47:33;;;;;;;11.13;2.05;;;;;;;14.62;51.73;96910.25;2092065;28;20199;-58
2023/01/02 12:49:07;;;;;;;8.95;1.65;;;;;;;14.64;51.34;96907.53;2093605;28;20465;-57
2023/01/02 12:50:23;;;;;;;8.77;2.45;;;;;;;14.65;51.64;96907.50;2092378;28;20633;-57
2023/01/02 12:51:36;;;;;;;16.17;2.60;;;;;;;14.58;51.57;96900.03;2091330;28;20246;-58
2023/01/02 12:52:46;;;;;;;17.92;2.40;;;;;;;14.56;51.69;96897.47;2091561;28;20534;-58
2023/01/02 12:54:06;;;;;;;11.68;2.67;;;;;;;14.56;51.71;96900.09;2091902;28;20205;-57
2023/01/02 12:55:24;;;;;;;7.03;1.67;;;;;;;14.46;51.83;96897.16;2089360;28;20240;-58
2023/01/02 12:56:34;;;;;;;8.60;1.98;;;;;;;14.44;51.65;96896.38;2091879;28;20227;-58
2023/01/02 12:57:53;;;;;;;8.52;3.53;;;;;;;14.46;51.67;96893.66;2092455;28;20249;-58
2023/01/02 12:59:33;;;;;;;22.77;7.43;;;;;;;14.37;51.53;96879.25;2091767;28;20651;-57
2023/01/02 13:00:59;;;;;;;27.10;4.57;;;;;;;14.40;52.02;96887.00;2090979;28;20292;-57
2023/01/02 13:02:39;;;;;;;16.92;2.58;;;;;;;14.48;52.36;96900.53;2091823;28;20290;-57
2023/01/02 13:04:03;;;;;;;20.27;3.15;;;;;;;14.46;52.07;96902.41;2093048;28;20554;-57
2023/01/02 13:05:12;;;;;;;10.32;2.45;;;;;;;14.44;52.12;96903.44;2092406;28;20616;-57
2023/01/02 13:06:23;;;;;;;10.68;2.83;;;;;;;14.54;52.35;96909.84;2091451;28;20216;-58
2023/01/02 13:07:49;;;;;;;14.82;2.50;;;;;;;14.56;51.85;96918.47;2090358;28;20227;-57
2023/01/02 13:09:07;;;;;;;10.43;2.65;;;;;;;14.47;51.91;96913.75;2089957;28;20227;-57
2023/01/02 13:10:15;;;;;;;12.57;2.38;;;;;;;14.41;52.48;96917.59;2091536;28;20724;-57
2023/01/02 13:11:25;;;;;;;16.08;3.05;;;;;;;14.43;52.46;96914.88;2089858;28;20223;-57
2023/01/02 13:12:29;;;;;;;11.38;2.15;;;;;;;14.43;52.29;96918.34;2092317;28;20197;-57
2023/01/02 13:13:34;;;;;;;7.18;2.03;;;;;;;14.44;52.13;96917.41;2089342;28;20227;-57
2023/01/02 13:14:42;;;;;;;9.73;2.47;;;;;;;14.46;52.33;96915.56;2088431;28;20220;-57
2023/01/02 13:15:48;;;;;;;11.45;2.28;;;;;;;14.41;52.70;96927.22;2089221;28;20208;-57
2023/01/02 13:17:11;;;;;;;8.95;2.00;;;;;;;14.32;52.94;96925.97;2090530;28;20200;-57
2023/01/02 13:18:22;;;;;;;9.90;2.47;;;;;;;14.36;52.80;96923.09;2092702;28;20192;-57
2023/01/02 13:19:34;;;;;;;7.50;2.20;;;;;;;14.33;52.87;96917.16;2092339;28;20192;-57
2023/01/02 13:21:03;;;;;;;9.07;2.53;;;;;;;14.35;53.53;96924.00;2090845;28;20198;-57
2023/01/02 13:22:25;;;;;;;25.65;3.33;;;;;;;14.34;53.42;96937.25;2092069;28;20199;-57
2023/01/02 13:23:45;;;;;;;13.05;3.45;;;;;;;14.39;53.76;96926.50;2090664;28;20199;-58
2023/01/02 13:24:49;;;;;;;16.13;3.75;;;;;;;14.36;53.69;96922.25;2095339;28;20222;-57
2023/01/02 13:26:18;;;;;;;26.98;3.60;;;;;;;14.36;54.16;96927.50;2094379;28;20195;-57
2023/01/02 13:27:20;;;;;;;19.80;2.65;;;;;;;14.35;53.96;96936.31;2090328;28;20204;-57
2023/01/02 13:28:22;;;;;;;16.95;2.80;;;;;;;14.24;54.01;96925.56;2090180;28;20401;-57
2023/01/02 13:29:28;;;;;;;12.98;2.30;;;;;;;14.25;54.30;96940.38;2089657;28;20636;-57
2023/01/02 13:30:32;;;;;;;13.82;3.20;;;;;;;14.26;53.36;96934.19;2090980;28;20199;-57
2023/01/02 13:31:48;;;;;;;11.18;2.65;;;;;;;14.21;53.61;96932.66;2092313;28;20254;-57
2023/01/02 13:32:50;;;;;;;11.07;2.30;;;;;;;14.16;53.43;96929.44;2091934;28;20222;-57
2023/01/02 13:33:53;;;;;;;7.97;2.72;;;;;;;14.09;53.27;96928.06;2090492;28;20199;-57
2023/01/02 13:34:57;;;;;;;20.23;4.80;;;;;;;14.13;53.49;96929.63;2092099;28;20233;-57
2023/01/02 13:36:12;;;;;;;12.00;2.22;;;;;;;14.13;53.76;96934.88;2088792;28;20228;-57
2023/01/02 13:37:24;;;;;;;15.70;2.45;;;;;;;14.13;53.86;96929.63;2092964;28;20195;-57
2023/01/02 13:38:29;;;;;;;8.60;2.45;;;;;;;14.18;54.13;96929.34;2092034;28;20263;-57
2023/01/02 13:39:39;;;;;;;7.95;2.22;;;;;;;14.19;53.83;96928.41;2091553;28;20204;-57
2023/01/02 13:40:41;;;;;;;10.80;2.78;;;;;;;14.23;53.56;96931.72;2090778;28;20245;-57
2023/01/02 13:43:21;;;;;;;12.52;2.85;;;;;;;14.27;53.53;96926.22;2091319;28;20208;-58
2023/01/02 13:44:32;;;;;;;13.82;2.63;;;;;;;14.29;54.04;96932.22;2092655;28;20232;-57
2023/01/02 13:45:36;;;;;;;7.22;1.98;;;;;;;14.20;53.80;96933.56;2090672;28;20203;-58
2023/01/02 13:46:38;;;;;;;10.73;2.17;;;;;;;14.23;53.45;96935.19;2090600;28;20193;-57
2023/01/02 13:48:12;;;;;;;9.23;2.00;;;;;;;14.18;53.88;96938.09;2093409;28;20254;-57
2023/01/02 13:49:19;;;;;;;10.10;2.42;;;;;;;14.12;54.18;96938.41;2089550;28;20191;-57
2023/01/02 13:50:27;;;;;;;13.48;2.60;;;;;;;14.10;54.30;96936.81;2093245;28;20246;-57
2023/01/02 13:51:32;;;;;;;11.45;2.60;;;;;;;14.03;54.18;96942.38;2090990;28;20228;-57
2023/01/02 13:52:34;;;;;;;11.75;2.72;;;;;;;14.04;54.56;96945.84;2094044;28;20549;-57
2023/01/02 13:53:45;;;;;;;15.32;2.58;;;;;;;13.97;55.09;96944.50;2089463;28;20654;-58
2023/01/02 13:55:08;;;;;;;13.40;3.10;;;;;;;13.81;55.81;96953.16;2091544;28;20254;-57
2023/01/02 13:56:11;;;;;;;11.43;2.60;;;;;;;13.71;56.00;96950.19;2092969;28;20302;-57
2023/01/02 13:57:24;;;;;;;13.73;2.58;;;;;;;13.63;56.52;96954.16;2092779;28;20483;-57
2023/01/02 13:58:40;;;;;;;13.93;2.33;;;;;;;13.57;56.52;96946.59;2092301;28;20228;-57
2023/01/02 14:00:23;;;;;;;11.63;2.60;;;;;;;13.56;56.44;96951.00;2092055;28;20199;-57
2023/01/02 14:01:32;;;;;;;13.35;2.80;;;;;;;13.53;56.96;96949.38;2092534;28;20601;-57
2023/01/02 14:02:34;;;;;;;14.57;3.00;;;;;;;13.55;57.15;96946.69;2092360;28;20322;-57
2023/01/02 14:03:36;;;;;;;21.05;3.25;;;;;;;13.58;57.36;96948.28;2091930;28;20220;-57
